Point Cedar, Arkansas
Current Conditions -  °F | °C
As of 12:56 PM on Tuesday 27 Jan 2015 (Local Time) from KADF Reporting Station
Clear Clear  
Wind Chill: 68°   Ceiling: Unl
Heat Index: 68°   Visibility: 10mi
Dew Point: 38°   Wind: 6mph
Humidity: 33%   Direction: 50°NE
Pressure: 30.13"   Gusts: NA
Location:  34.2417°N, 93.3579°W
Report Text: KADF 271856Z AUTO 05005KT 10SM CLR 20/03 A3013 RMK AO2 T02000033 SLP219
Loading
Personal Weather Stations






























Interactive Weather Map New forecast layout! Learn more

10-Day Weather Forecast

Advertisements
Track Severe Weather on mobile